createdAt,value
2022-10-17T00:01:15.151Z,26.80
2022-10-17T00:03:44.667Z,25.38
2022-10-17T00:06:14.850Z,27.02
2022-10-17T00:08:43.080Z,28.50
2022-10-17T00:11:16.769Z,28.67
2022-10-17T00:13:44.418Z,29.42
2022-10-17T00:16:11.907Z,29.98
2022-10-17T00:18:39.151Z,29.92
2022-10-17T00:21:06.608Z,28.60
2022-10-17T00:23:35.807Z,28.40
2022-10-17T00:26:05.636Z,27.35
2022-10-17T00:28:35.115Z,25.73
2022-10-17T00:31:06.339Z,26.90
2022-10-17T00:33:35.558Z,25.88
2022-10-17T00:36:07.325Z,26.83
2022-10-17T00:38:37.710Z,27.60
2022-10-17T00:41:05.849Z,25.98
2022-10-17T00:44:02.852Z,25.25
2022-10-17T00:46:36.192Z,25.58
2022-10-17T00:49:08.426Z,26.65
2022-10-17T00:51:46.471Z,26.60
2022-10-17T00:54:19.187Z,25.88
2022-10-17T00:56:48.290Z,25.50
2022-10-17T00:59:17.687Z,25.60
2022-10-17T01:01:52.552Z,26.45
2022-10-17T01:04:20.171Z,25.23
2022-10-17T01:06:47.427Z,26.90
2022-10-17T01:09:14.489Z,26.73
2022-10-17T01:12:04.355Z,26.45
2022-10-17T01:14:55.396Z,24.77
2022-10-17T01:17:55.045Z,25.80
2022-10-17T01:20:55.519Z,23.95
2022-10-17T01:23:49.375Z,26.75
2022-10-17T01:26:40.088Z,26.65
2022-10-17T01:29:26.437Z,26.83
2022-10-17T01:31:58.565Z,25.00
2022-10-17T01:34:35.255Z,24.40
2022-10-17T01:37:21.377Z,25.52
2022-10-17T01:39:55.862Z,26.40
2022-10-17T01:43:17.007Z,26.08
2022-10-17T01:45:54.942Z,23.13
2022-10-17T01:48:25.429Z,26.23
2022-10-17T01:51:01.969Z,24.58
2022-10-17T01:53:33.927Z,23.75
2022-10-17T01:56:05.264Z,24.58
2022-10-17T01:58:37.746Z,25.10
2022-10-17T02:01:08.513Z,25.90
2022-10-17T02:03:36.137Z,23.05
2022-10-17T02:06:03.617Z,24.08
2022-10-17T02:08:46.173Z,23.42
2022-10-17T02:11:24.738Z,25.00
2022-10-17T02:14:18.507Z,23.10
2022-10-17T02:19:46.215Z,23.23
2022-10-17T02:22:39.662Z,25.05
2022-10-17T02:25:18.171Z,24.35
2022-10-17T02:28:17.679Z,23.83
2022-10-17T02:30:56.254Z,24.35
2022-10-17T02:33:56.505Z,24.17
2022-10-17T02:36:28.320Z,24.02
2022-10-17T02:38:56.464Z,23.70
2022-10-17T02:41:27.054Z,23.02
2022-10-17T02:43:57.628Z,25.13
2022-10-17T02:46:28.926Z,25.17
2022-10-17T02:49:16.209Z,25.00
2022-10-17T02:51:59.312Z,24.25
2022-10-17T02:54:56.958Z,25.90
2022-10-17T02:57:51.180Z,24.30
2022-10-17T03:03:30.818Z,25.52
2022-10-17T03:06:00.493Z,25.83
2022-10-17T03:08:27.913Z,25.48
2022-10-17T03:10:55.328Z,24.92
2022-10-17T03:13:24.875Z,25.50
2022-10-17T03:15:52.222Z,25.10
2022-10-17T03:18:19.330Z,24.67
2022-10-17T03:20:46.752Z,24.35
2022-10-17T03:23:16.431Z,24.58
2022-10-17T03:25:43.864Z,25.25
2022-10-17T03:28:11.854Z,23.30
2022-10-17T03:30:39.370Z,23.52
2022-10-17T03:33:06.668Z,24.73
2022-10-17T03:35:38.920Z,23.27
2022-10-17T03:38:06.138Z,23.02
2022-10-17T03:40:33.446Z,25.30
2022-10-17T03:43:00.560Z,24.30
2022-10-17T03:45:27.894Z,24.33
2022-10-17T03:47:58.339Z,24.45
2022-10-17T03:50:25.978Z,23.13
2022-10-17T03:52:53.127Z,23.85
2022-10-17T03:55:20.474Z,24.45
2022-10-17T03:57:47.656Z,22.77
2022-10-17T04:00:15.318Z,25.17
2022-10-17T04:02:42.724Z,24.27
2022-10-17T04:05:10.131Z,23.98
2022-10-17T04:07:37.318Z,23.95
2022-10-17T04:10:05.699Z,23.00
2022-10-17T04:12:32.944Z,21.80
2022-10-17T04:15:02.486Z,23.08
2022-10-17T04:17:35.752Z,23.58
2022-10-17T04:20:06.280Z,23.63
2022-10-17T04:22:35.838Z,24.42
2022-10-17T04:25:03.146Z,24.35
2022-10-17T04:27:30.350Z,24.27
2022-10-17T04:29:57.704Z,28.38
2022-10-17T04:32:24.798Z,23.23
2022-10-17T04:34:52.245Z,22.90
2022-10-17T04:37:19.850Z,24.80
2022-10-17T04:39:47.156Z,23.88
2022-10-17T04:42:16.585Z,23.35
2022-10-17T04:44:43.866Z,23.17
2022-10-17T04:47:11.141Z,23.35
2022-10-17T04:49:38.911Z,24.58
2022-10-17T04:52:06.026Z,23.17
2022-10-17T04:54:33.212Z,23.33
2022-10-17T04:57:05.054Z,24.63
2022-10-17T04:59:32.650Z,23.38
2022-10-17T05:02:02.156Z,23.25
2022-10-17T05:04:31.606Z,24.90
2022-10-17T05:07:01.118Z,22.60
2022-10-17T05:09:28.788Z,22.58
2022-10-17T05:11:55.987Z,22.15
2022-10-17T05:14:23.364Z,22.13
2022-10-17T05:16:50.457Z,20.70
2022-10-17T05:19:18.064Z,21.60
2022-10-17T05:21:47.552Z,20.80
2022-10-17T05:24:15.405Z,23.10
2022-10-17T05:26:42.636Z,24.05
2022-10-17T05:29:10.280Z,22.02
2022-10-17T05:31:37.687Z,23.10
2022-10-17T05:34:07.066Z,23.55
2022-10-17T05:36:41.096Z,23.13
2022-10-17T05:39:12.618Z,23.75
2022-10-17T05:41:39.673Z,23.10
2022-10-17T05:44:09.322Z,21.83
2022-10-17T05:46:36.558Z,21.80
2022-10-17T05:49:14.659Z,20.50
2022-10-17T05:51:53.394Z,20.02
2022-10-17T05:54:20.600Z,20.00
2022-10-17T05:56:55.298Z,18.80
2022-10-17T05:59:24.392Z,19.35
2022-10-17T06:01:54.702Z,18.27
2022-10-17T06:04:24.760Z,17.83
2022-10-17T06:06:52.120Z,17.85
2022-10-17T06:09:22.331Z,17.65
2022-10-17T06:11:51.811Z,17.95
2022-10-17T06:14:21.398Z,16.95
2022-10-17T06:16:50.894Z,15.88
2022-10-17T06:19:18.550Z,15.73
2022-10-17T06:21:45.872Z,15.77
2022-10-17T06:24:13.350Z,14.95
2022-10-17T06:26:40.487Z,16.83
2022-10-17T06:29:08.517Z,16.35
2022-10-17T06:31:38.490Z,15.25
2022-10-17T06:34:05.940Z,15.55
2022-10-17T06:36:33.168Z,16.27
2022-10-17T06:39:00.519Z,15.70
2022-10-17T06:41:27.773Z,15.35
2022-10-17T06:43:55.262Z,15.82
2022-10-17T06:46:22.255Z,14.88
2022-10-17T06:48:52.163Z,14.95
2022-10-17T06:51:19.389Z,13.82
2022-10-17T06:53:46.865Z,14.32
2022-10-17T06:56:14.125Z,14.27
2022-10-17T06:58:41.555Z,13.40
2022-10-17T07:01:11.722Z,13.30
2022-10-17T07:03:40.346Z,13.27
2022-10-17T07:06:08.111Z,13.57
2022-10-17T07:08:35.501Z,14.05
2022-10-17T07:11:13.671Z,13.85
2022-10-17T07:13:41.143Z,13.15
2022-10-17T07:16:11.787Z,13.85
2022-10-17T07:18:42.271Z,13.03
2022-10-17T07:21:11.619Z,13.82
2022-10-17T07:23:38.810Z,13.10
2022-10-17T07:26:13.226Z,13.27
2022-10-17T07:28:43.108Z,12.98
2022-10-17T07:31:16.595Z,12.60
2022-10-17T07:36:21.329Z,13.27
2022-10-17T07:38:51.000Z,12.15
2022-10-17T07:41:20.922Z,14.10
2022-10-17T07:43:50.194Z,13.85
2022-10-17T07:46:19.623Z,12.23
2022-10-17T07:48:46.913Z,13.45
2022-10-17T07:51:14.173Z,12.70
2022-10-17T07:53:46.434Z,12.43
2022-10-17T07:56:16.333Z,12.43
2022-10-17T07:58:46.361Z,12.55
2022-10-17T08:01:15.322Z,12.38
2022-10-17T08:03:49.159Z,12.25
2022-10-17T08:06:16.634Z,12.75
2022-10-17T08:08:46.452Z,12.57
2022-10-17T08:11:15.121Z,12.20
2022-10-17T08:13:45.207Z,13.50
2022-10-17T08:16:13.635Z,13.65
2022-10-17T08:18:42.784Z,13.13
2022-10-17T08:21:13.266Z,14.43
2022-10-17T08:23:43.921Z,13.83
2022-10-17T08:26:12.202Z,14.25
2022-10-17T08:28:40.513Z,14.77
2022-10-17T08:31:10.420Z,13.68
2022-10-17T08:33:38.219Z,14.95
2022-10-17T08:36:06.774Z,13.90
2022-10-17T08:38:36.357Z,13.43
2022-10-17T08:41:11.989Z,14.60
2022-10-17T08:44:14.173Z,13.65
2022-10-17T08:46:44.891Z,14.02
2022-10-17T08:49:46.991Z,13.75
2022-10-17T08:52:28.533Z,13.93
2022-10-17T08:54:56.089Z,13.38
2022-10-17T08:57:26.104Z,12.70
2022-10-17T08:59:56.013Z,13.60
2022-10-17T09:02:37.849Z,13.35
2022-10-17T09:05:33.301Z,12.75
2022-10-17T09:08:16.700Z,13.55
2022-10-17T09:10:49.906Z,13.10
2022-10-17T09:13:45.279Z,12.32
2022-10-17T09:16:35.093Z,12.60
2022-10-17T09:19:31.725Z,12.25
2022-10-17T09:22:04.376Z,11.85
2022-10-17T09:24:50.465Z,12.40
2022-10-17T09:27:43.132Z,12.68
2022-10-17T09:30:44.056Z,12.70
2022-10-17T09:36:00.289Z,12.15
2022-10-17T09:38:38.166Z,11.70
2022-10-17T09:41:39.157Z,12.43
2022-10-17T09:44:18.108Z,11.95
2022-10-17T09:47:04.225Z,12.57
2022-10-17T09:49:50.451Z,11.85
2022-10-17T09:52:37.856Z,12.23
2022-10-17T09:55:16.757Z,12.68
2022-10-17T09:57:52.538Z,11.98
2022-10-17T10:00:33.923Z,11.38
2022-10-17T10:03:24.801Z,11.80
2022-10-17T10:06:05.656Z,11.27
2022-10-17T10:08:55.452Z,11.48
2022-10-17T10:11:44.090Z,12.52
2022-10-17T10:14:22.684Z,12.48
2022-10-17T10:16:52.380Z,13.38
2022-10-17T10:19:30.266Z,12.18
2022-10-17T10:22:03.944Z,11.55
2022-10-17T10:24:33.361Z,11.50
2022-10-17T10:27:05.037Z,12.30
2022-10-17T10:29:52.340Z,12.48
2022-10-17T10:32:22.468Z,12.38
2022-10-17T10:34:58.720Z,11.77
2022-10-17T10:37:33.962Z,12.00
2022-10-17T10:40:06.718Z,11.60
2022-10-17T10:42:40.388Z,11.63
2022-10-17T10:45:29.220Z,11.75
2022-10-17T10:48:17.786Z,11.05
2022-10-17T10:51:07.997Z,11.30
2022-10-17T10:53:44.520Z,10.68
2022-10-17T10:56:29.841Z,10.82
2022-10-17T10:59:18.823Z,10.32
2022-10-17T11:01:49.170Z,10.50
2022-10-17T11:04:25.500Z,11.48
2022-10-17T11:07:06.180Z,9.93
2022-10-17T11:09:52.120Z,9.70
2022-10-17T11:12:19.068Z,9.65
2022-10-17T11:15:14.114Z,11.00
2022-10-17T11:18:02.186Z,11.15
2022-10-17T11:21:03.312Z,10.98
2022-10-17T11:23:38.459Z,10.60
2022-10-17T11:26:16.631Z,10.40
2022-10-17T11:28:46.613Z,11.00
2022-10-17T11:31:15.812Z,11.60
2022-10-17T11:33:42.751Z,10.48
2022-10-17T11:36:11.206Z,11.00
2022-10-17T11:38:52.601Z,11.02
2022-10-17T11:41:37.994Z,10.52
2022-10-17T11:44:34.069Z,10.93
2022-10-17T11:47:39.458Z,10.30
2022-10-17T11:53:26.020Z,11.18
2022-10-17T11:55:54.568Z,10.52
2022-10-17T11:58:39.090Z,11.25
2022-10-17T12:01:21.365Z,11.05
2022-10-17T12:04:31.876Z,10.53
2022-10-17T12:07:32.359Z,11.10
2022-10-17T12:10:18.590Z,11.45
2022-10-17T12:12:45.878Z,10.95
2022-10-17T12:15:13.063Z,11.50
2022-10-17T12:18:05.720Z,11.75
2022-10-17T12:20:35.368Z,11.40
2022-10-17T12:23:11.901Z,11.43
2022-10-17T12:25:55.967Z,10.77
2022-10-17T12:28:33.779Z,12.23
2022-10-17T12:31:07.300Z,12.25
2022-10-17T12:33:35.925Z,11.27
2022-10-17T12:36:19.257Z,10.68
2022-10-17T12:38:51.882Z,10.73
2022-10-17T12:44:14.458Z,10.23
2022-10-17T12:46:48.349Z,9.77
2022-10-17T12:50:04.554Z,10.07
2022-10-17T12:52:31.894Z,9.57
2022-10-17T12:55:14.574Z,9.45
2022-10-17T12:58:03.857Z,10.52
2022-10-17T13:03:45.469Z,9.35
2022-10-17T13:06:21.763Z,9.98
2022-10-17T13:09:03.320Z,9.35
2022-10-17T13:11:35.102Z,9.68
2022-10-17T13:14:12.286Z,10.50
2022-10-17T13:16:50.508Z,9.30
2022-10-17T13:19:23.014Z,9.98
2022-10-17T13:21:55.134Z,9.25
2022-10-17T13:24:30.169Z,10.32
2022-10-17T13:26:57.545Z,9.57
2022-10-17T13:29:25.793Z,9.32
2022-10-17T13:31:59.411Z,10.63
2022-10-17T13:34:27.690Z,10.27
2022-10-17T13:37:01.605Z,9.40
2022-10-17T13:39:52.316Z,9.65
2022-10-17T13:42:37.011Z,10.55
2022-10-17T13:45:12.627Z,9.93
2022-10-17T13:47:40.235Z,10.55
2022-10-17T13:50:26.428Z,10.05
2022-10-17T13:53:18.102Z,10.95
2022-10-17T13:56:09.443Z,11.13
2022-10-17T13:58:43.695Z,11.68
2022-10-17T14:01:13.377Z,11.35
2022-10-17T14:03:48.973Z,10.43
2022-10-17T14:06:23.888Z,11.38
2022-10-17T14:09:05.097Z,10.38
2022-10-17T14:11:42.505Z,10.90
2022-10-17T14:14:19.413Z,10.73
2022-10-17T14:16:48.137Z,11.15
2022-10-17T14:19:37.790Z,10.68
2022-10-17T14:22:22.074Z,10.45
2022-10-17T14:24:50.451Z,11.27
2022-10-17T14:27:33.449Z,11.27
2022-10-17T14:30:03.214Z,10.57
2022-10-17T14:32:36.315Z,10.68
2022-10-17T14:35:37.015Z,10.80
2022-10-17T14:38:03.197Z,11.68
2022-10-17T14:40:32.435Z,10.88
2022-10-17T14:43:04.943Z,10.82
2022-10-17T14:45:38.103Z,11.27
2022-10-17T14:48:21.559Z,10.27
2022-10-17T14:51:08.261Z,11.05
2022-10-17T14:53:36.473Z,11.82
2022-10-17T14:56:22.483Z,11.35
2022-10-17T14:58:49.870Z,11.30
2022-10-17T15:01:16.869Z,11.90
2022-10-17T15:03:44.583Z,10.63
2022-10-17T15:06:23.410Z,11.77
2022-10-17T15:08:50.970Z,11.05
2022-10-17T15:11:18.378Z,11.23
2022-10-17T15:13:48.075Z,12.40
2022-10-17T15:16:19.813Z,12.82
2022-10-17T15:18:48.146Z,12.33
2022-10-17T15:21:26.278Z,11.38
2022-10-17T15:24:06.789Z,12.05
2022-10-17T15:26:34.845Z,13.77
2022-10-17T15:29:02.444Z,13.43
2022-10-17T15:31:32.299Z,12.23
2022-10-17T15:33:59.791Z,12.70
2022-10-17T15:36:30.915Z,12.20
2022-10-17T15:39:00.796Z,11.77
2022-10-17T15:41:29.908Z,12.30
2022-10-17T15:43:59.123Z,13.20
2022-10-17T15:46:32.719Z,21.95
2022-10-17T15:49:05.436Z,16.00
2022-10-17T15:51:32.864Z,13.32
2022-10-17T15:54:00.264Z,11.73
2022-10-17T15:56:30.900Z,11.68
2022-10-17T15:58:58.494Z,12.75
2022-10-17T16:01:29.696Z,13.27
2022-10-17T16:03:57.341Z,11.98
2022-10-17T16:06:25.188Z,12.57
2022-10-17T16:08:53.293Z,11.73
2022-10-17T16:11:29.004Z,11.77
2022-10-17T16:14:00.332Z,12.45
2022-10-17T16:16:28.365Z,11.45
2022-10-17T16:18:55.821Z,13.20
2022-10-17T16:21:27.135Z,12.57
2022-10-17T16:23:57.696Z,11.82
2022-10-17T16:26:25.355Z,11.88
2022-10-17T16:28:52.885Z,11.45
2022-10-17T16:31:25.777Z,12.10
2022-10-17T16:36:24.248Z,11.60
2022-10-17T16:38:52.017Z,11.20
2022-10-17T16:41:26.797Z,11.55
2022-10-17T16:43:55.881Z,11.40
2022-10-17T16:46:24.188Z,11.48
2022-10-17T16:48:52.170Z,11.63
2022-10-17T16:51:20.250Z,11.73
2022-10-17T16:53:52.718Z,12.45
2022-10-17T16:56:22.330Z,11.50
2022-10-17T16:58:50.686Z,11.30
2022-10-17T17:01:23.741Z,11.98
2022-10-17T17:03:52.740Z,11.77
2022-10-17T17:06:26.258Z,11.30
2022-10-17T17:08:57.096Z,12.50
2022-10-17T17:11:26.192Z,12.20
2022-10-17T17:13:56.876Z,11.93
2022-10-17T17:16:26.514Z,11.57
2022-10-17T17:18:55.868Z,11.30
2022-10-17T17:21:23.792Z,12.43
2022-10-17T17:23:51.352Z,11.20
2022-10-17T17:26:22.266Z,11.60
2022-10-17T17:28:50.208Z,10.88
2022-10-17T17:31:22.732Z,12.90
2022-10-17T17:33:52.010Z,10.68
2022-10-17T17:36:24.952Z,12.30
2022-10-17T17:38:55.938Z,12.02
2022-10-17T17:41:23.599Z,11.32
2022-10-17T17:43:51.893Z,10.73
2022-10-17T17:46:21.302Z,10.98
2022-10-17T17:48:49.878Z,11.32
2022-10-17T17:51:20.682Z,11.27
2022-10-17T17:53:48.939Z,10.05
2022-10-17T17:56:19.645Z,11.48
2022-10-17T17:58:48.558Z,10.43
2022-10-17T18:01:20.420Z,10.80
2022-10-17T18:03:49.864Z,11.57
2022-10-17T18:06:18.900Z,11.13
2022-10-17T18:08:49.543Z,11.05
2022-10-17T18:11:21.977Z,11.32
2022-10-17T18:14:01.011Z,11.27
2022-10-17T18:16:29.869Z,10.07
2022-10-17T18:19:01.479Z,11.15
2022-10-17T18:21:31.920Z,11.23
2022-10-17T18:23:59.330Z,10.35
2022-10-17T18:26:26.839Z,11.52
2022-10-17T18:28:54.669Z,12.05
2022-10-17T18:31:23.576Z,11.05
2022-10-17T18:33:55.283Z,10.43
2022-10-17T18:36:23.462Z,10.93
2022-10-17T18:38:50.844Z,9.77
2022-10-17T18:41:20.518Z,10.05
2022-10-17T18:43:49.456Z,10.88
2022-10-17T18:46:28.309Z,10.50
2022-10-17T18:48:58.276Z,10.35
2022-10-17T18:51:26.068Z,9.68
2022-10-17T18:53:59.713Z,10.45
2022-10-17T18:56:27.202Z,10.07
2022-10-17T18:58:55.178Z,9.68
2022-10-17T19:01:25.776Z,9.60
2022-10-17T19:03:56.024Z,9.60
2022-10-17T19:06:27.601Z,9.20
2022-10-17T19:08:55.189Z,9.70
2022-10-17T19:11:25.613Z,9.50
2022-10-17T19:13:53.608Z,9.23
2022-10-17T19:16:23.249Z,9.48
2022-10-17T19:18:54.541Z,9.55
2022-10-17T19:21:22.537Z,9.25
2022-10-17T19:23:58.404Z,9.63
2022-10-17T19:26:28.487Z,9.20
2022-10-17T19:28:56.279Z,9.43
2022-10-17T19:31:27.563Z,8.77
2022-10-17T19:33:56.501Z,9.00
2022-10-17T19:36:30.421Z,8.73
2022-10-17T19:39:05.073Z,8.98
2022-10-17T19:41:32.773Z,8.77
2022-10-17T19:44:00.519Z,8.18
2022-10-17T19:46:29.601Z,9.02
2022-10-17T19:48:57.432Z,8.30
2022-10-17T19:51:26.196Z,8.73
2022-10-17T19:53:56.038Z,8.60
2022-10-17T19:56:25.082Z,8.13
2022-10-17T19:58:58.134Z,8.82
2022-10-17T20:03:57.110Z,7.55
2022-10-17T20:06:24.536Z,8.77
2022-10-17T20:08:52.357Z,7.40
2022-10-17T20:11:22.668Z,7.80
2022-10-17T20:13:50.818Z,7.72
2022-10-17T20:16:25.888Z,7.97
2022-10-17T20:18:55.677Z,7.75
2022-10-17T20:21:25.731Z,6.75
2022-10-17T20:23:53.937Z,8.32
2022-10-17T20:26:37.527Z,7.00
2022-10-17T20:29:14.304Z,7.53
2022-10-17T20:31:44.202Z,8.15
2022-10-17T20:34:14.244Z,7.65
2022-10-17T20:36:41.798Z,7.15
2022-10-17T20:39:10.947Z,7.63
2022-10-17T20:41:38.245Z,6.97
2022-10-17T20:44:10.980Z,7.35
2022-10-17T20:46:44.681Z,7.15
2022-10-17T20:49:18.536Z,7.95
2022-10-17T20:51:46.825Z,7.13
2022-10-17T20:54:14.340Z,7.10
2022-10-17T20:56:41.732Z,7.05
2022-10-17T20:59:14.411Z,7.05
2022-10-17T21:01:42.239Z,7.80
2022-10-17T21:04:44.918Z,7.65
2022-10-17T21:07:02.005Z,7.80
2022-10-17T21:09:29.718Z,7.63
2022-10-17T21:11:57.025Z,8.38
2022-10-17T21:14:25.457Z,7.38
2022-10-17T21:16:54.854Z,9.25
2022-10-17T21:19:22.311Z,7.47
2022-10-17T21:21:49.988Z,6.85
2022-10-17T21:24:19.944Z,6.82
2022-10-17T21:26:48.835Z,7.38
2022-10-17T21:29:18.427Z,6.82
2022-10-17T21:31:45.640Z,6.85
2022-10-17T21:34:18.293Z,7.43
2022-10-17T21:36:48.570Z,7.60
2022-10-17T21:39:16.900Z,7.50
2022-10-17T21:41:44.854Z,8.10
2022-10-17T21:44:14.989Z,7.53
2022-10-17T21:46:42.982Z,7.65
2022-10-17T21:49:12.640Z,8.13
2022-10-17T21:51:40.385Z,8.75
2022-10-17T21:54:08.112Z,8.38
2022-10-17T21:56:35.666Z,9.38
2022-10-17T21:59:04.054Z,9.98
2022-10-17T22:01:34.914Z,9.48
2022-10-17T22:04:04.562Z,9.45
2022-10-17T22:06:39.739Z,8.35
2022-10-17T22:09:13.402Z,7.53
2022-10-17T22:11:40.934Z,7.80
2022-10-17T22:14:18.490Z,8.25
2022-10-17T22:16:47.183Z,7.60
2022-10-17T22:19:17.606Z,7.30
2022-10-17T22:21:45.398Z,7.30
2022-10-17T22:24:14.909Z,7.28
2022-10-17T22:26:43.453Z,7.43
2022-10-17T22:29:11.359Z,8.18
2022-10-17T22:31:39.583Z,7.43
2022-10-17T22:34:07.992Z,7.82
2022-10-17T22:36:35.852Z,6.97
2022-10-17T22:39:03.994Z,7.50
2022-10-17T22:41:31.437Z,7.03
2022-10-17T22:43:58.982Z,8.00
2022-10-17T22:46:26.364Z,7.40
2022-10-17T22:48:53.871Z,8.35
2022-10-17T22:51:21.189Z,7.38
2022-10-17T22:53:48.721Z,7.28
2022-10-17T22:56:18.775Z,7.07
2022-10-17T22:58:46.527Z,7.40
2022-10-17T23:01:17.278Z,7.22
2022-10-17T23:03:45.062Z,7.63
2022-10-17T23:06:14.505Z,7.57
2022-10-17T23:08:43.497Z,7.63
2022-10-17T23:11:13.255Z,8.32
2022-10-17T23:13:40.826Z,7.65
2022-10-17T23:16:08.840Z,8.43
2022-10-17T23:18:37.833Z,8.52
2022-10-17T23:21:05.456Z,8.50
2022-10-17T23:23:33.324Z,8.52
2022-10-17T23:26:09.384Z,8.77
2022-10-17T23:28:37.302Z,8.20
2022-10-17T23:31:19.129Z,8.65
2022-10-17T23:33:47.876Z,8.57
2022-10-17T23:36:19.014Z,8.27
2022-10-17T23:38:47.922Z,8.23
2022-10-17T23:41:15.200Z,8.70
2022-10-17T23:43:43.017Z,8.55
2022-10-17T23:46:10.551Z,8.88
2022-10-17T23:48:38.715Z,8.18
2022-10-17T23:51:07.390Z,7.57
2022-10-17T23:53:35.990Z,8.07
2022-10-17T23:56:06.723Z,8.23
2022-10-17T23:58:34.667Z,8.23
